Laflin, Pennsylvania
Current Conditions -  °F | °C
As of 7:54 PM on Friday 24 Oct 2014 (Local Time) from KAVP Reporting Station
Clear Clear  
Wind Chill: 57°   Ceiling: Unl
Heat Index: 57°   Visibility: 10mi
Dew Point: 38°   Wind: 9mph
Humidity: 49%   Direction: 340°NNW
Pressure: 29.88"   Gusts: NA
Location:  41.2711°N, 75.8417°W
Report Text: KAVP 242354Z AUTO 34008KT 10SM CLR 14/03 A2988 RMK AO2 SLP117 T01390033 10189 20139 53011
Loading
Personal Weather Stations






























Interactive Weather Map
Tropical Storm Tracking
New forecast layout! Learn more

10-Day Weather Forecast

Advertisements
Track Severe Weather on mobile